Harbinger, North Carolina
Current Conditions -  °F | °C
As of 9:35 PM on Friday 21 Nov 2014 (Local Time) from KFFA Reporting Station
Clear Clear  
Wind Chill: 34°   Ceiling: Unl
Heat Index: 37°   Visibility: 10mi
Dew Point: 22°   Wind: 5mph
Humidity: 55%   Direction: 330°NNW
Pressure: 30.54"   Gusts: NA
Location:  36.1°N, 75.81°W
Report Text: KFFA 220235Z AUTO 33004KT 10SM CLR 03/M05 A3054 RMK AO2 T00301053
Loading
Personal Weather Stations






























Interactive Weather Map New forecast layout! Learn more

10-Day Weather Forecast

Advertisements
Track Severe Weather on mobile